sensor_id;sensor_type;location;lat;lon;timestamp;P1;durP1;ratioP1;P2;durP2;ratioP2
51048;SDS011;37084;55.228;36.450;2022-07-29T00:01:08;7.20;;;3.28;;
51048;SDS011;37084;55.228;36.450;2022-07-29T00:04:10;6.13;;;2.88;;
51048;SDS011;37084;55.228;36.450;2022-07-29T00:07:13;4.63;;;3.00;;
51048;SDS011;37084;55.228;36.450;2022-07-29T00:10:14;5.25;;;2.70;;
51048;SDS011;37084;55.228;36.450;2022-07-29T00:13:15;5.07;;;2.75;;
51048;SDS011;37084;55.228;36.450;2022-07-29T00:16:16;5.72;;;2.22;;
51048;SDS011;37084;55.228;36.450;2022-07-29T00:19:17;3.25;;;2.70;;
51048;SDS011;37084;55.228;36.450;2022-07-29T00:22:19;3.72;;;2.58;;
51048;SDS011;37084;55.228;36.450;2022-07-29T00:25:20;4.63;;;2.55;;
51048;SDS011;37084;55.228;36.450;2022-07-29T00:28:22;3.60;;;2.88;;
51048;SDS011;37084;55.228;36.450;2022-07-29T00:31:23;4.65;;;2.58;;
51048;SDS011;37084;55.228;36.450;2022-07-29T00:34:24;6.88;;;2.65;;
51048;SDS011;37084;55.228;36.450;2022-07-29T00:37:44;3.67;;;2.90;;
51048;SDS011;37084;55.228;36.450;2022-07-29T00:40:46;4.40;;;2.75;;
51048;SDS011;37084;55.228;36.450;2022-07-29T00:43:48;4.38;;;3.15;;
51048;SDS011;37084;55.228;36.450;2022-07-29T00:46:50;3.97;;;2.83;;
51048;SDS011;37084;55.228;36.450;2022-07-29T00:49:51;4.75;;;2.83;;
51048;SDS011;37084;55.228;36.450;2022-07-29T00:52:52;3.22;;;2.47;;
51048;SDS011;37084;55.228;36.450;2022-07-29T00:55:54;4.80;;;2.80;;
51048;SDS011;37084;55.228;36.450;2022-07-29T00:58:56;7.32;;;1.65;;
51048;SDS011;37084;55.228;36.450;2022-07-29T01:01:57;5.85;;;2.70;;
51048;SDS011;37084;55.228;36.450;2022-07-29T01:05:00;5.10;;;2.60;;
51048;SDS011;37084;55.228;36.450;2022-07-29T01:08:03;6.28;;;3.47;;
51048;SDS011;37084;55.228;36.450;2022-07-29T01:11:05;4.03;;;2.90;;
51048;SDS011;37084;55.228;36.450;2022-07-29T01:14:06;5.90;;;3.10;;
51048;SDS011;37084;55.228;36.450;2022-07-29T01:17:13;4.97;;;3.30;;
51048;SDS011;37084;55.228;36.450;2022-07-29T01:23:50;4.05;;;2.83;;
51048;SDS011;37084;55.228;36.450;2022-07-29T01:27:09;5.75;;;2.65;;
51048;SDS011;37084;55.228;36.450;2022-07-29T01:30:33;6.35;;;3.15;;
51048;SDS011;37084;55.228;36.450;2022-07-29T01:33:38;4.60;;;3.00;;
51048;SDS011;37084;55.228;36.450;2022-07-29T01:43:41;12.23;;;3.05;;
51048;SDS011;37084;55.228;36.450;2022-07-29T01:46:54;3.45;;;2.90;;
51048;SDS011;37084;55.228;36.450;2022-07-29T01:52:59;3.72;;;2.85;;
51048;SDS011;37084;55.228;36.450;2022-07-29T01:56:03;3.33;;;2.67;;
51048;SDS011;37084;55.228;36.450;2022-07-29T02:02:31;3.30;;;2.65;;
51048;SDS011;37084;55.228;36.450;2022-07-29T02:05:34;4.97;;;2.90;;
51048;SDS011;37084;55.228;36.450;2022-07-29T02:08:36;4.95;;;3.42;;
51048;SDS011;37084;55.228;36.450;2022-07-29T02:11:38;4.75;;;2.75;;
51048;SDS011;37084;55.228;36.450;2022-07-29T02:14:44;3.90;;;3.20;;
51048;SDS011;37084;55.228;36.450;2022-07-29T02:18:21;6.57;;;3.63;;
51048;SDS011;37084;55.228;36.450;2022-07-29T02:21:18;3.30;;;2.88;;
51048;SDS011;37084;55.228;36.450;2022-07-29T02:24:22;3.80;;;3.50;;
51048;SDS011;37084;55.228;36.450;2022-07-29T02:27:24;4.95;;;3.10;;
51048;SDS011;37084;55.228;36.450;2022-07-29T02:30:27;4.05;;;2.53;;
51048;SDS011;37084;55.228;36.450;2022-07-29T02:33:30;3.20;;;2.85;;
51048;SDS011;37084;55.228;36.450;2022-07-29T02:36:31;5.68;;;4.50;;
51048;SDS011;37084;55.228;36.450;2022-07-29T02:39:36;5.20;;;4.13;;
51048;SDS011;37084;55.228;36.450;2022-07-29T02:42:38;6.93;;;3.20;;
51048;SDS011;37084;55.228;36.450;2022-07-29T02:45:42;4.22;;;3.53;;
51048;SDS011;37084;55.228;36.450;2022-07-29T02:48:48;4.10;;;2.88;;
51048;SDS011;37084;55.228;36.450;2022-07-29T02:51:55;4.95;;;3.10;;
51048;SDS011;37084;55.228;36.450;2022-07-29T02:55:43;3.75;;;2.65;;
51048;SDS011;37084;55.228;36.450;2022-07-29T03:01:54;4.55;;;2.90;;
51048;SDS011;37084;55.228;36.450;2022-07-29T03:04:56;4.18;;;2.92;;
51048;SDS011;37084;55.228;36.450;2022-07-29T03:08:00;5.78;;;2.90;;
51048;SDS011;37084;55.228;36.450;2022-07-29T03:11:04;3.30;;;2.75;;
51048;SDS011;37084;55.228;36.450;2022-07-29T03:14:06;4.05;;;3.22;;
51048;SDS011;37084;55.228;36.450;2022-07-29T03:17:08;3.90;;;2.85;;
51048;SDS011;37084;55.228;36.450;2022-07-29T03:20:10;3.10;;;2.80;;
51048;SDS011;37084;55.228;36.450;2022-07-29T03:23:12;7.13;;;2.80;;
51048;SDS011;37084;55.228;36.450;2022-07-29T03:26:23;3.90;;;2.40;;
51048;SDS011;37084;55.228;36.450;2022-07-29T03:29:24;3.58;;;2.90;;
51048;SDS011;37084;55.228;36.450;2022-07-29T03:32:26;3.45;;;2.55;;
51048;SDS011;37084;55.228;36.450;2022-07-29T03:35:27;4.90;;;2.58;;
51048;SDS011;37084;55.228;36.450;2022-07-29T03:38:30;2.95;;;2.38;;
51048;SDS011;37084;55.228;36.450;2022-07-29T03:41:35;3.38;;;2.28;;
51048;SDS011;37084;55.228;36.450;2022-07-29T03:44:38;3.78;;;2.33;;
51048;SDS011;37084;55.228;36.450;2022-07-29T03:47:42;4.00;;;2.40;;
51048;SDS011;37084;55.228;36.450;2022-07-29T03:50:48;4.40;;;2.42;;
51048;SDS011;37084;55.228;36.450;2022-07-29T03:53:50;3.45;;;2.40;;
51048;SDS011;37084;55.228;36.450;2022-07-29T03:56:52;3.80;;;2.22;;
51048;SDS011;37084;55.228;36.450;2022-07-29T03:59:56;2.70;;;1.65;;
51048;SDS011;37084;55.228;36.450;2022-07-29T04:02:57;4.15;;;2.42;;
51048;SDS011;37084;55.228;36.450;2022-07-29T04:06:02;4.53;;;2.58;;
51048;SDS011;37084;55.228;36.450;2022-07-29T04:09:07;3.40;;;2.30;;
51048;SDS011;37084;55.228;36.450;2022-07-29T04:12:09;4.22;;;2.22;;
51048;SDS011;37084;55.228;36.450;2022-07-29T04:15:11;4.80;;;2.42;;
51048;SDS011;37084;55.228;36.450;2022-07-29T04:18:12;3.05;;;2.15;;
51048;SDS011;37084;55.228;36.450;2022-07-29T04:21:13;2.47;;;2.13;;
51048;SDS011;37084;55.228;36.450;2022-07-29T04:24:14;3.65;;;2.15;;
51048;SDS011;37084;55.228;36.450;2022-07-29T04:27:16;3.80;;;2.42;;
51048;SDS011;37084;55.228;36.450;2022-07-29T04:30:19;3.55;;;2.95;;
51048;SDS011;37084;55.228;36.450;2022-07-29T04:33:20;2.58;;;2.38;;
51048;SDS011;37084;55.228;36.450;2022-07-29T04:36:21;3.60;;;2.42;;
51048;SDS011;37084;55.228;36.450;2022-07-29T04:39:23;3.05;;;2.45;;
51048;SDS011;37084;55.228;36.450;2022-07-29T04:42:26;4.05;;;2.25;;
51048;SDS011;37084;55.228;36.450;2022-07-29T04:45:27;3.15;;;2.22;;
51048;SDS011;37084;55.228;36.450;2022-07-29T04:48:30;2.15;;;1.92;;
51048;SDS011;37084;55.228;36.450;2022-07-29T04:51:31;3.92;;;2.22;;
51048;SDS011;37084;55.228;36.450;2022-07-29T04:54:32;5.35;;;2.08;;
51048;SDS011;37084;55.228;36.450;2022-07-29T04:57:33;2.67;;;2.25;;
51048;SDS011;37084;55.228;36.450;2022-07-29T05:00:36;3.10;;;1.85;;
51048;SDS011;37084;55.228;36.450;2022-07-29T05:03:39;3.00;;;1.90;;
51048;SDS011;37084;55.228;36.450;2022-07-29T05:06:40;3.92;;;2.15;;
51048;SDS011;37084;55.228;36.450;2022-07-29T05:09:41;7.65;;;2.58;;
51048;SDS011;37084;55.228;36.450;2022-07-29T05:12:45;2.70;;;2.08;;
51048;SDS011;37084;55.228;36.450;2022-07-29T05:15:46;2.35;;;1.15;;
51048;SDS011;37084;55.228;36.450;2022-07-29T05:18:49;2.22;;;1.70;;
51048;SDS011;37084;55.228;36.450;2022-07-29T05:21:50;3.13;;;1.75;;
51048;SDS011;37084;55.228;36.450;2022-07-29T05:24:51;2.70;;;1.52;;
51048;SDS011;37084;55.228;36.450;2022-07-29T05:30:58;2.65;;;1.42;;
51048;SDS011;37084;55.228;36.450;2022-07-29T05:34:00;4.07;;;1.73;;
51048;SDS011;37084;55.228;36.450;2022-07-29T05:37:01;3.67;;;1.52;;
51048;SDS011;37084;55.228;36.450;2022-07-29T05:40:03;2.13;;;1.40;;
51048;SDS011;37084;55.228;36.450;2022-07-29T05:43:05;1.23;;;1.10;;
51048;SDS011;37084;55.228;36.450;2022-07-29T05:46:06;1.38;;;0.90;;
51048;SDS011;37084;55.228;36.450;2022-07-29T05:49:09;1.48;;;1.20;;
51048;SDS011;37084;55.228;36.450;2022-07-29T05:52:10;1.38;;;1.00;;
51048;SDS011;37084;55.228;36.450;2022-07-29T05:55:11;2.75;;;1.08;;
51048;SDS011;37084;55.228;36.450;2022-07-29T05:58:12;1.75;;;1.05;;
51048;SDS011;37084;55.228;36.450;2022-07-29T06:01:14;1.33;;;1.23;;
51048;SDS011;37084;55.228;36.450;2022-07-29T06:04:16;1.23;;;1.10;;
51048;SDS011;37084;55.228;36.450;2022-07-29T06:07:18;2.97;;;1.17;;
51048;SDS011;37084;55.228;36.450;2022-07-29T06:10:20;2.17;;;1.10;;
51048;SDS011;37084;55.228;36.450;2022-07-29T06:13:21;1.30;;;1.20;;
51048;SDS011;37084;55.228;36.450;2022-07-29T06:16:23;2.78;;;1.17;;
51048;SDS011;37084;55.228;36.450;2022-07-29T06:19:25;1.73;;;1.00;;
51048;SDS011;37084;55.228;36.450;2022-07-29T06:22:26;1.27;;;0.80;;
51048;SDS011;37084;55.228;36.450;2022-07-29T06:25:27;1.30;;;1.00;;
51048;SDS011;37084;55.228;36.450;2022-07-29T06:28:35;0.88;;;0.88;;
51048;SDS011;37084;55.228;36.450;2022-07-29T06:31:36;1.25;;;1.10;;
51048;SDS011;37084;55.228;36.450;2022-07-29T06:34:40;1.13;;;1.02;;
51048;SDS011;37084;55.228;36.450;2022-07-29T06:37:41;2.38;;;0.90;;
51048;SDS011;37084;55.228;36.450;2022-07-29T06:40:45;4.20;;;1.15;;
51048;SDS011;37084;55.228;36.450;2022-07-29T06:44:22;3.08;;;1.00;;
51048;SDS011;37084;55.228;36.450;2022-07-29T06:47:23;1.48;;;1.25;;
51048;SDS011;37084;55.228;36.450;2022-07-29T06:50:25;1.63;;;1.45;;
51048;SDS011;37084;55.228;36.450;2022-07-29T06:53:27;1.10;;;1.00;;
51048;SDS011;37084;55.228;36.450;2022-07-29T06:56:32;1.42;;;1.25;;
51048;SDS011;37084;55.228;36.450;2022-07-29T06:59:37;1.65;;;1.05;;
51048;SDS011;37084;55.228;36.450;2022-07-29T07:02:38;1.92;;;1.00;;
51048;SDS011;37084;55.228;36.450;2022-07-29T07:05:41;1.40;;;1.30;;
51048;SDS011;37084;55.228;36.450;2022-07-29T07:08:42;1.33;;;1.08;;
51048;SDS011;37084;55.228;36.450;2022-07-29T07:11:44;2.03;;;1.30;;
51048;SDS011;37084;55.228;36.450;2022-07-29T07:14:46;2.15;;;1.00;;
51048;SDS011;37084;55.228;36.450;2022-07-29T07:17:48;1.33;;;1.10;;
51048;SDS011;37084;55.228;36.450;2022-07-29T07:20:52;1.00;;;0.90;;
51048;SDS011;37084;55.228;36.450;2022-07-29T07:23:53;2.03;;;1.17;;
51048;SDS011;37084;55.228;36.450;2022-07-29T07:26:54;1.20;;;1.10;;
51048;SDS011;37084;55.228;36.450;2022-07-29T07:29:56;4.50;;;1.00;;
51048;SDS011;37084;55.228;36.450;2022-07-29T07:32:58;4.53;;;1.30;;
51048;SDS011;37084;55.228;36.450;2022-07-29T07:35:59;2.05;;;1.38;;
51048;SDS011;37084;55.228;36.450;2022-07-29T07:39:00;2.47;;;1.88;;
51048;SDS011;37084;55.228;36.450;2022-07-29T07:42:01;2.67;;;1.40;;
51048;SDS011;37084;55.228;36.450;2022-07-29T07:45:02;2.10;;;1.10;;
51048;SDS011;37084;55.228;36.450;2022-07-29T07:48:04;2.80;;;1.40;;
51048;SDS011;37084;55.228;36.450;2022-07-29T07:51:05;3.25;;;1.23;;
51048;SDS011;37084;55.228;36.450;2022-07-29T07:54:07;1.17;;;1.00;;
51048;SDS011;37084;55.228;36.450;2022-07-29T07:57:09;2.00;;;1.10;;
51048;SDS011;37084;55.228;36.450;2022-07-29T08:00:12;1.50;;;1.40;;
51048;SDS011;37084;55.228;36.450;2022-07-29T08:06:15;2.58;;;1.15;;
51048;SDS011;37084;55.228;36.450;2022-07-29T08:09:17;0.90;;;0.73;;
51048;SDS011;37084;55.228;36.450;2022-07-29T08:12:18;1.13;;;1.08;;
51048;SDS011;37084;55.228;36.450;2022-07-29T08:15:19;1.33;;;1.23;;
51048;SDS011;37084;55.228;36.450;2022-07-29T08:18:20;2.38;;;1.30;;
51048;SDS011;37084;55.228;36.450;2022-07-29T08:21:22;1.15;;;1.00;;
51048;SDS011;37084;55.228;36.450;2022-07-29T08:24:24;1.30;;;1.05;;
51048;SDS011;37084;55.228;36.450;2022-07-29T08:27:44;2.50;;;1.00;;
51048;SDS011;37084;55.228;36.450;2022-07-29T08:30:45;2.28;;;1.10;;
51048;SDS011;37084;55.228;36.450;2022-07-29T08:33:47;0.85;;;0.85;;
51048;SDS011;37084;55.228;36.450;2022-07-29T08:36:48;2.28;;;1.13;;
51048;SDS011;37084;55.228;36.450;2022-07-29T08:39:49;1.70;;;1.25;;
51048;SDS011;37084;55.228;36.450;2022-07-29T08:42:52;1.30;;;1.10;;
51048;SDS011;37084;55.228;36.450;2022-07-29T08:45:53;1.48;;;1.10;;
51048;SDS011;37084;55.228;36.450;2022-07-29T08:48:54;0.93;;;0.50;;
51048;SDS011;37084;55.228;36.450;2022-07-29T08:51:58;1.35;;;0.80;;
51048;SDS011;37084;55.228;36.450;2022-07-29T08:55:01;1.05;;;0.95;;
51048;SDS011;37084;55.228;36.450;2022-07-29T08:58:04;1.70;;;1.20;;
51048;SDS011;37084;55.228;36.450;2022-07-29T09:01:06;1.13;;;1.08;;
51048;SDS011;37084;55.228;36.450;2022-07-29T09:04:11;1.02;;;1.00;;
51048;SDS011;37084;55.228;36.450;2022-07-29T09:10:44;3.17;;;1.15;;
51048;SDS011;37084;55.228;36.450;2022-07-29T09:13:45;0.90;;;0.90;;
51048;SDS011;37084;55.228;36.450;2022-07-29T09:16:48;1.50;;;1.17;;
51048;SDS011;37084;55.228;36.450;2022-07-29T09:19:51;1.08;;;1.08;;
51048;SDS011;37084;55.228;36.450;2022-07-29T09:22:52;2.22;;;1.10;;
51048;SDS011;37084;55.228;36.450;2022-07-29T09:25:54;0.68;;;0.68;;
51048;SDS011;37084;55.228;36.450;2022-07-29T09:28:55;1.40;;;1.17;;
51048;SDS011;37084;55.228;36.450;2022-07-29T09:31:58;2.90;;;1.38;;
51048;SDS011;37084;55.228;36.450;2022-07-29T09:35:16;1.08;;;0.90;;
51048;SDS011;37084;55.228;36.450;2022-07-29T09:38:19;1.20;;;0.50;;
51048;SDS011;37084;55.228;36.450;2022-07-29T09:45:33;1.38;;;1.00;;
51048;SDS011;37084;55.228;36.450;2022-07-29T09:48:37;2.25;;;1.00;;
51048;SDS011;37084;55.228;36.450;2022-07-29T09:55:32;3.45;;;1.17;;
51048;SDS011;37084;55.228;36.450;2022-07-29T10:02:13;3.50;;;1.17;;
51048;SDS011;37084;55.228;36.450;2022-07-29T10:05:22;1.90;;;0.80;;
51048;SDS011;37084;55.228;36.450;2022-07-29T10:08:28;1.73;;;0.80;;
51048;SDS011;37084;55.228;36.450;2022-07-29T10:14:34;2.88;;;1.50;;
51048;SDS011;37084;55.228;36.450;2022-07-29T10:17:40;2.80;;;1.10;;
51048;SDS011;37084;55.228;36.450;2022-07-29T10:20:43;1.55;;;1.27;;
51048;SDS011;37084;55.228;36.450;2022-07-29T10:23:47;1.80;;;0.90;;
51048;SDS011;37084;55.228;36.450;2022-07-29T10:26:49;2.65;;;1.40;;
51048;SDS011;37084;55.228;36.450;2022-07-29T10:29:51;1.50;;;1.25;;
51048;SDS011;37084;55.228;36.450;2022-07-29T10:36:32;0.88;;;0.70;;
51048;SDS011;37084;55.228;36.450;2022-07-29T10:42:50;2.78;;;0.90;;
51048;SDS011;37084;55.228;36.450;2022-07-29T10:45:57;2.05;;;0.90;;
51048;SDS011;37084;55.228;36.450;2022-07-29T10:52:09;1.20;;;0.88;;
51048;SDS011;37084;55.228;36.450;2022-07-29T10:55:29;2.15;;;0.88;;
51048;SDS011;37084;55.228;36.450;2022-07-29T11:09:16;3.75;;;1.05;;
51048;SDS011;37084;55.228;36.450;2022-07-29T11:15:59;1.90;;;0.95;;
51048;SDS011;37084;55.228;36.450;2022-07-29T11:25:37;1.67;;;1.17;;
51048;SDS011;37084;55.228;36.450;2022-07-29T11:31:54;2.50;;;0.85;;
51048;SDS011;37084;55.228;36.450;2022-07-29T11:35:19;1.73;;;0.95;;
51048;SDS011;37084;55.228;36.450;2022-07-29T11:41:27;2.05;;;1.10;;
51048;SDS011;37084;55.228;36.450;2022-07-29T11:48:03;2.05;;;0.82;;
51048;SDS011;37084;55.228;36.450;2022-07-29T11:51:10;2.00;;;0.90;;
51048;SDS011;37084;55.228;36.450;2022-07-29T11:54:13;2.83;;;1.58;;
51048;SDS011;37084;55.228;36.450;2022-07-29T11:57:17;1.38;;;0.93;;
51048;SDS011;37084;55.228;36.450;2022-07-29T12:00:23;1.95;;;0.77;;
51048;SDS011;37084;55.228;36.450;2022-07-29T12:03:34;1.58;;;0.52;;
51048;SDS011;37084;55.228;36.450;2022-07-29T12:06:35;1.83;;;0.70;;
51048;SDS011;37084;55.228;36.450;2022-07-29T12:09:37;1.58;;;0.93;;
51048;SDS011;37084;55.228;36.450;2022-07-29T12:12:42;1.90;;;0.70;;
51048;SDS011;37084;55.228;36.450;2022-07-29T12:15:53;3.47;;;0.90;;
51048;SDS011;37084;55.228;36.450;2022-07-29T12:18:56;1.77;;;0.90;;
51048;SDS011;37084;55.228;36.450;2022-07-29T12:21:59;1.95;;;1.85;;
51048;SDS011;37084;55.228;36.450;2022-07-29T12:25:08;2.72;;;1.30;;
51048;SDS011;37084;55.228;36.450;2022-07-29T12:28:16;4.30;;;1.42;;
51048;SDS011;37084;55.228;36.450;2022-07-29T12:31:19;1.55;;;1.20;;
51048;SDS011;37084;55.228;36.450;2022-07-29T12:34:22;2.35;;;1.27;;
51048;SDS011;37084;55.228;36.450;2022-07-29T12:37:24;2.22;;;1.45;;
51048;SDS011;37084;55.228;36.450;2022-07-29T12:40:26;1.27;;;1.17;;
51048;SDS011;37084;55.228;36.450;2022-07-29T12:43:27;1.75;;;0.70;;
51048;SDS011;37084;55.228;36.450;2022-07-29T12:46:28;1.63;;;1.20;;
51048;SDS011;37084;55.228;36.450;2022-07-29T12:49:30;1.95;;;0.90;;
51048;SDS011;37084;55.228;36.450;2022-07-29T12:52:44;2.13;;;1.08;;
51048;SDS011;37084;55.228;36.450;2022-07-29T12:55:57;2.33;;;1.40;;
51048;SDS011;37084;55.228;36.450;2022-07-29T12:59:22;1.30;;;1.00;;
51048;SDS011;37084;55.228;36.450;2022-07-29T13:02:26;2.60;;;1.15;;
51048;SDS011;37084;55.228;36.450;2022-07-29T13:05:43;0.88;;;0.60;;
51048;SDS011;37084;55.228;36.450;2022-07-29T13:09:21;0.93;;;0.93;;
51048;SDS011;37084;55.228;36.450;2022-07-29T13:12:18;1.42;;;0.90;;
51048;SDS011;37084;55.228;36.450;2022-07-29T13:15:21;2.13;;;1.17;;
51048;SDS011;37084;55.228;36.450;2022-07-29T13:18:29;2.17;;;1.00;;
51048;SDS011;37084;55.228;36.450;2022-07-29T13:21:35;1.70;;;0.75;;
51048;SDS011;37084;55.228;36.450;2022-07-29T13:24:57;1.30;;;1.20;;
51048;SDS011;37084;55.228;36.450;2022-07-29T13:28:00;1.70;;;0.80;;
51048;SDS011;37084;55.228;36.450;2022-07-29T13:31:01;1.58;;;1.17;;
51048;SDS011;37084;55.228;36.450;2022-07-29T13:34:02;1.95;;;1.05;;
51048;SDS011;37084;55.228;36.450;2022-07-29T13:37:05;1.75;;;1.10;;
51048;SDS011;37084;55.228;36.450;2022-07-29T13:40:06;1.80;;;0.98;;
51048;SDS011;37084;55.228;36.450;2022-07-29T13:43:09;1.50;;;1.10;;
51048;SDS011;37084;55.228;36.450;2022-07-29T13:46:11;1.35;;;1.10;;
51048;SDS011;37084;55.228;36.450;2022-07-29T13:49:13;1.73;;;1.10;;
51048;SDS011;37084;55.228;36.450;2022-07-29T13:52:16;2.08;;;1.10;;
51048;SDS011;37084;55.228;36.450;2022-07-29T13:55:17;2.63;;;1.35;;
51048;SDS011;37084;55.228;36.450;2022-07-29T13:58:19;2.22;;;1.05;;
51048;SDS011;37084;55.228;36.450;2022-07-29T14:01:20;2.20;;;1.00;;
51048;SDS011;37084;55.228;36.450;2022-07-29T14:04:22;1.10;;;1.00;;
51048;SDS011;37084;55.228;36.450;2022-07-29T14:07:25;2.65;;;1.15;;
51048;SDS011;37084;55.228;36.450;2022-07-29T14:10:26;2.47;;;1.00;;
51048;SDS011;37084;55.228;36.450;2022-07-29T14:13:28;1.45;;;0.90;;
51048;SDS011;37084;55.228;36.450;2022-07-29T14:16:29;1.15;;;0.70;;
51048;SDS011;37084;55.228;36.450;2022-07-29T14:19:30;1.40;;;1.10;;
51048;SDS011;37084;55.228;36.450;2022-07-29T14:22:35;3.05;;;1.15;;
51048;SDS011;37084;55.228;36.450;2022-07-29T14:25:42;1.52;;;1.10;;
51048;SDS011;37084;55.228;36.450;2022-07-29T14:28:45;1.98;;;1.20;;
51048;SDS011;37084;55.228;36.450;2022-07-29T14:31:46;1.08;;;1.00;;
51048;SDS011;37084;55.228;36.450;2022-07-29T14:34:48;1.73;;;1.10;;
51048;SDS011;37084;55.228;36.450;2022-07-29T14:37:51;1.30;;;1.25;;
51048;SDS011;37084;55.228;36.450;2022-07-29T14:40:53;1.67;;;1.20;;
51048;SDS011;37084;55.228;36.450;2022-07-29T14:43:55;2.20;;;1.23;;
51048;SDS011;37084;55.228;36.450;2022-07-29T14:46:57;1.67;;;0.75;;
51048;SDS011;37084;55.228;36.450;2022-07-29T14:50:00;2.45;;;1.10;;
51048;SDS011;37084;55.228;36.450;2022-07-29T14:53:06;1.25;;;1.15;;
51048;SDS011;37084;55.228;36.450;2022-07-29T14:56:08;1.20;;;1.10;;
51048;SDS011;37084;55.228;36.450;2022-07-29T14:59:09;1.13;;;1.00;;
51048;SDS011;37084;55.228;36.450;2022-07-29T15:02:12;1.75;;;1.38;;
51048;SDS011;37084;55.228;36.450;2022-07-29T15:05:14;1.27;;;1.10;;
51048;SDS011;37084;55.228;36.450;2022-07-29T15:08:15;2.83;;;1.70;;
51048;SDS011;37084;55.228;36.450;2022-07-29T15:11:17;2.25;;;1.45;;
51048;SDS011;37084;55.228;36.450;2022-07-29T15:14:18;1.10;;;0.80;;
51048;SDS011;37084;55.228;36.450;2022-07-29T15:17:20;1.40;;;0.98;;
51048;SDS011;37084;55.228;36.450;2022-07-29T15:20:21;2.50;;;1.00;;
51048;SDS011;37084;55.228;36.450;2022-07-29T15:26:25;5.43;;;1.58;;
51048;SDS011;37084;55.228;36.450;2022-07-29T15:29:28;10.75;;;5.63;;
51048;SDS011;37084;55.228;36.450;2022-07-29T15:32:29;2.05;;;1.40;;
51048;SDS011;37084;55.228;36.450;2022-07-29T15:35:32;14.02;;;6.32;;
51048;SDS011;37084;55.228;36.450;2022-07-29T15:38:33;3.88;;;1.50;;
51048;SDS011;37084;55.228;36.450;2022-07-29T15:41:35;5.00;;;1.20;;
51048;SDS011;37084;55.228;36.450;2022-07-29T15:44:36;4.75;;;1.27;;
51048;SDS011;37084;55.228;36.450;2022-07-29T15:47:37;1.92;;;1.30;;
51048;SDS011;37084;55.228;36.450;2022-07-29T15:50:40;7.65;;;3.35;;
51048;SDS011;37084;55.228;36.450;2022-07-29T15:53:41;6.97;;;3.00;;
51048;SDS011;37084;55.228;36.450;2022-07-29T15:56:43;6.45;;;2.10;;
51048;SDS011;37084;55.228;36.450;2022-07-29T15:59:45;5.60;;;1.70;;
51048;SDS011;37084;55.228;36.450;2022-07-29T16:02:46;4.88;;;1.45;;
51048;SDS011;37084;55.228;36.450;2022-07-29T16:05:48;5.95;;;2.42;;
51048;SDS011;37084;55.228;36.450;2022-07-29T16:08:49;4.35;;;2.05;;
51048;SDS011;37084;55.228;36.450;2022-07-29T16:11:50;2.80;;;1.30;;
51048;SDS011;37084;55.228;36.450;2022-07-29T16:14:57;2.30;;;1.33;;
51048;SDS011;37084;55.228;36.450;2022-07-29T16:18:00;1.20;;;0.95;;
51048;SDS011;37084;55.228;36.450;2022-07-29T16:21:01;3.10;;;2.28;;
51048;SDS011;37084;55.228;36.450;2022-07-29T16:24:04;2.47;;;0.90;;
51048;SDS011;37084;55.228;36.450;2022-07-29T16:27:06;3.22;;;1.23;;
51048;SDS011;37084;55.228;36.450;2022-07-29T16:30:10;2.28;;;1.08;;
51048;SDS011;37084;55.228;36.450;2022-07-29T16:33:13;3.15;;;1.40;;
51048;SDS011;37084;55.228;36.450;2022-07-29T16:36:15;2.30;;;1.10;;
51048;SDS011;37084;55.228;36.450;2022-07-29T16:39:20;2.17;;;1.30;;
51048;SDS011;37084;55.228;36.450;2022-07-29T16:42:25;2.03;;;1.25;;
51048;SDS011;37084;55.228;36.450;2022-07-29T16:45:27;2.00;;;1.30;;
51048;SDS011;37084;55.228;36.450;2022-07-29T16:48:29;2.53;;;1.40;;
51048;SDS011;37084;55.228;36.450;2022-07-29T16:51:30;4.78;;;1.30;;
51048;SDS011;37084;55.228;36.450;2022-07-29T16:54:31;1.50;;;0.95;;
51048;SDS011;37084;55.228;36.450;2022-07-29T16:57:32;3.58;;;1.00;;
51048;SDS011;37084;55.228;36.450;2022-07-29T17:00:34;1.25;;;1.00;;
51048;SDS011;37084;55.228;36.450;2022-07-29T17:03:35;5.15;;;1.20;;
51048;SDS011;37084;55.228;36.450;2022-07-29T17:06:56;3.40;;;1.00;;
51048;SDS011;37084;55.228;36.450;2022-07-29T17:10:01;4.88;;;1.25;;
51048;SDS011;37084;55.228;36.450;2022-07-29T17:13:05;4.65;;;1.40;;
51048;SDS011;37084;55.228;36.450;2022-07-29T17:16:06;4.68;;;1.90;;
51048;SDS011;37084;55.228;36.450;2022-07-29T17:19:08;2.17;;;1.00;;
51048;SDS011;37084;55.228;36.450;2022-07-29T17:22:10;1.55;;;1.05;;
51048;SDS011;37084;55.228;36.450;2022-07-29T17:25:13;1.90;;;1.00;;
51048;SDS011;37084;55.228;36.450;2022-07-29T17:28:15;2.42;;;1.00;;
51048;SDS011;37084;55.228;36.450;2022-07-29T17:31:16;1.73;;;1.05;;
51048;SDS011;37084;55.228;36.450;2022-07-29T17:37:22;1.58;;;0.98;;
51048;SDS011;37084;55.228;36.450;2022-07-29T17:40:28;1.40;;;1.02;;
51048;SDS011;37084;55.228;36.450;2022-07-29T17:43:31;4.28;;;1.30;;
51048;SDS011;37084;55.228;36.450;2022-07-29T17:46:33;0.98;;;0.88;;
51048;SDS011;37084;55.228;36.450;2022-07-29T17:49:34;1.70;;;0.90;;
51048;SDS011;37084;55.228;36.450;2022-07-29T17:52:37;3.25;;;1.20;;
51048;SDS011;37084;55.228;36.450;2022-07-29T17:55:44;1.50;;;1.33;;
51048;SDS011;37084;55.228;36.450;2022-07-29T17:58:48;3.50;;;2.05;;
51048;SDS011;37084;55.228;36.450;2022-07-29T18:01:51;20.00;;;10.13;;
51048;SDS011;37084;55.228;36.450;2022-07-29T18:04:53;43.05;;;21.92;;
51048;SDS011;37084;55.228;36.450;2022-07-29T18:07:54;57.63;;;30.25;;
51048;SDS011;37084;55.228;36.450;2022-07-29T18:10:55;32.25;;;15.98;;
51048;SDS011;37084;55.228;36.450;2022-07-29T18:13:57;20.55;;;10.35;;
51048;SDS011;37084;55.228;36.450;2022-07-29T18:16:59;91.57;;;36.70;;
51048;SDS011;37084;55.228;36.450;2022-07-29T18:20:02;91.88;;;40.17;;
51048;SDS011;37084;55.228;36.450;2022-07-29T18:23:04;65.25;;;35.92;;
51048;SDS011;37084;55.228;36.450;2022-07-29T18:26:08;32.33;;;20.73;;
51048;SDS011;37084;55.228;36.450;2022-07-29T18:29:11;20.98;;;15.32;;
51048;SDS011;37084;55.228;36.450;2022-07-29T18:32:18;10.93;;;8.82;;
51048;SDS011;37084;55.228;36.450;2022-07-29T18:35:21;14.05;;;12.38;;
51048;SDS011;37084;55.228;36.450;2022-07-29T18:38:26;11.65;;;10.50;;
51048;SDS011;37084;55.228;36.450;2022-07-29T18:41:27;5.97;;;4.03;;
51048;SDS011;37084;55.228;36.450;2022-07-29T18:44:29;4.45;;;3.38;;
51048;SDS011;37084;55.228;36.450;2022-07-29T18:47:34;4.38;;;2.80;;
51048;SDS011;37084;55.228;36.450;2022-07-29T18:50:36;2.20;;;2.00;;
51048;SDS011;37084;55.228;36.450;2022-07-29T18:53:41;5.57;;;4.57;;
51048;SDS011;37084;55.228;36.450;2022-07-29T18:56:44;9.00;;;6.28;;
51048;SDS011;37084;55.228;36.450;2022-07-29T18:59:46;12.20;;;9.05;;
51048;SDS011;37084;55.228;36.450;2022-07-29T19:02:48;9.65;;;8.25;;
51048;SDS011;37084;55.228;36.450;2022-07-29T19:05:53;5.80;;;4.70;;
51048;SDS011;37084;55.228;36.450;2022-07-29T19:08:55;3.22;;;2.15;;
51048;SDS011;37084;55.228;36.450;2022-07-29T19:11:58;3.00;;;2.00;;
51048;SDS011;37084;55.228;36.450;2022-07-29T19:15:02;2.03;;;1.17;;
51048;SDS011;37084;55.228;36.450;2022-07-29T19:18:04;4.43;;;1.90;;
51048;SDS011;37084;55.228;36.450;2022-07-29T19:21:07;3.55;;;1.67;;
51048;SDS011;37084;55.228;36.450;2022-07-29T19:24:09;4.30;;;2.22;;
51048;SDS011;37084;55.228;36.450;2022-07-29T19:27:12;3.63;;;2.10;;
51048;SDS011;37084;55.228;36.450;2022-07-29T19:30:13;5.45;;;2.80;;
51048;SDS011;37084;55.228;36.450;2022-07-29T19:33:16;5.68;;;3.25;;
51048;SDS011;37084;55.228;36.450;2022-07-29T19:36:19;3.78;;;2.63;;
51048;SDS011;37084;55.228;36.450;2022-07-29T19:39:20;4.65;;;3.05;;